Time;durP1;ratioP1;P1;durP2;ratioP2;P2;SDS_P1;SDS_P2;PMS_P1;PMS_P2;Temp;Humidity;BMP_temperature;BMP_pressure;BME280_temperature;BME280_humidity;BME280_pressure;Samples;Min_cycle;Max_cycle;Signal;HPM_P1;HPM_P2
2022/07/25 00:00:29;;;;;;;8.18;7.05;;;22.50;99.90;;;;;;5033941;28;20591;-77
2022/07/25 00:02:55;;;;;;;7.57;6.72;;;22.50;99.90;;;;;;5052738;28;20055;-78
2022/07/25 00:05:21;;;;;;;9.05;7.13;;;22.50;99.90;;;;;;5034201;28;20041;-78
2022/07/25 00:07:47;;;;;;;6.90;6.15;;;22.50;99.90;;;;;;5034203;28;20500;-77
2022/07/25 00:10:13;;;;;;;8.55;6.30;;;22.50;99.90;;;;;;5019572;28;20112;-76
2022/07/25 00:12:39;;;;;;;8.23;6.75;;;22.50;99.90;;;;;;5052244;28;20603;-77
2022/07/25 00:15:05;;;;;;;11.00;6.75;;;22.50;99.90;;;;;;5034429;28;20033;-77
2022/07/25 00:17:31;;;;;;;8.55;6.78;;;22.50;99.90;;;;;;5052129;28;20033;-77
2022/07/25 00:19:56;;;;;;;8.55;6.25;;;22.50;99.90;;;;;;5018493;28;20481;-76
2022/07/25 00:22:22;;;;;;;8.15;6.20;;;22.50;99.90;;;;;;5050335;28;20029;-78
2022/07/25 00:24:48;;;;;;;8.00;6.15;;;22.50;99.90;;;;;;5053040;28;20082;-77
2022/07/25 00:27:14;;;;;;;6.93;6.22;;;22.50;99.90;;;;;;5033650;28;20038;-78
2022/07/25 00:29:39;;;;;;;6.35;5.75;;;22.50;99.90;;;;;;5050779;28;20040;-78
2022/07/25 00:32:05;;;;;;;9.60;6.38;;;22.50;99.90;;;;;;5034566;28;20075;-78
2022/07/25 00:34:31;;;;;;;7.95;6.00;;;22.40;99.90;;;;;;5050088;28;20037;-78
2022/07/25 00:36:57;;;;;;;8.75;6.53;;;22.40;99.90;;;;;;5018192;28;20031;-78
2022/07/25 00:39:23;;;;;;;6.55;5.55;;;22.40;99.90;;;;;;5033035;28;20055;-78
2022/07/25 00:41:48;;;;;;;8.82;6.55;;;22.40;99.90;;;;;;5034037;28;20021;-78
2022/07/25 00:44:27;;;;;;;8.77;6.53;;;22.40;99.90;;;;;;5031067;28;20043;-78
2022/07/25 00:46:54;;;;;;;12.75;6.57;;;22.40;99.90;;;;;;5034781;28;20082;-78
2022/07/25 00:49:20;;;;;;;7.82;6.50;;;22.30;99.90;;;;;;5032511;28;20033;-79
2022/07/25 00:51:46;;;;;;;7.07;6.38;;;22.30;99.90;;;;;;5033376;28;20029;-78
2022/07/25 00:54:13;;;;;;;7.45;6.30;;;22.30;99.90;;;;;;5032141;28;20068;-78
2022/07/25 00:56:39;;;;;;;10.18;6.25;;;22.20;99.90;;;;;;5033066;28;20079;-78
2022/07/25 00:59:05;;;;;;;11.13;6.93;;;22.20;99.90;;;;;;5033204;28;20456;-78
2022/07/25 01:01:31;;;;;;;8.30;7.03;;;22.20;99.90;;;;;;5032143;28;20021;-78
2022/07/25 01:03:59;;;;;;;8.70;6.40;;;22.20;99.90;;;;;;5050330;28;20023;-78
2022/07/25 01:06:26;;;;;;;11.90;6.97;;;22.20;99.90;;;;;;5029573;28;20029;-78
2022/07/25 01:08:53;;;;;;;8.70;6.25;;;22.20;99.90;;;;;;5030561;28;20060;-77
2022/07/25 01:11:19;;;;;;;7.03;6.32;;;22.20;99.90;;;;;;5031342;28;20100;-78
2022/07/25 01:13:45;;;;;;;7.20;6.40;;;22.10;99.90;;;;;;5048476;28;20025;-78
2022/07/25 01:16:10;;;;;;;8.07;5.97;;;22.10;99.90;;;;;;5047220;28;20413;-79
2022/07/25 01:18:37;;;;;;;7.00;6.30;;;22.10;99.90;;;;;;5048113;28;20033;-78
2022/07/25 01:21:03;;;;;;;7.32;6.05;;;22.10;99.90;;;;;;5051351;28;20025;-77
2022/07/25 01:23:29;;;;;;;7.95;6.00;;;22.10;99.70;;;;;;5049953;28;20031;-77
2022/07/25 01:25:54;;;;;;;7.15;6.45;;;22.10;99.80;;;;;;5030497;28;20032;-77
2022/07/25 01:28:20;;;;;;;7.30;5.65;;;22.00;99.60;;;;;;5050034;28;20032;-77
2022/07/25 01:30:45;;;;;;;7.65;5.97;;;22.00;99.50;;;;;;5049134;28;20033;-77
2022/07/25 01:33:19;;;;;;;7.90;5.57;;;22.00;99.30;;;;;;5015704;28;20116;-77
2022/07/25 01:35:46;;;;;;;6.63;5.93;;;22.10;99.40;;;;;;5047976;28;20024;-77
2022/07/25 01:38:15;;;;;;;6.57;5.88;;;22.10;99.10;;;;;;5032602;28;20040;-77
2022/07/25 01:40:44;;;;;;;6.72;5.50;;;22.00;98.90;;;;;;5049756;28;20029;-77
2022/07/25 01:43:10;;;;;;;8.40;5.88;;;22.00;98.70;;;;;;5015450;28;20444;-78
2022/07/25 01:45:36;;;;;;;7.82;5.35;;;22.00;98.60;;;;;;5030510;28;20043;-78
2022/07/25 01:48:02;;;;;;;7.78;5.43;;;22.00;98.50;;;;;;5028897;28;20120;-77
2022/07/25 01:50:28;;;;;;;7.10;5.30;;;22.00;98.40;;;;;;5048103;28;20393;-77
2022/07/25 01:52:57;;;;;;;7.22;5.65;;;22.00;98.40;;;;;;5034386;28;20036;-77
2022/07/25 01:55:22;;;;;;;7.32;6.28;;;21.90;98.50;;;;;;5053217;28;20025;-77
2022/07/25 01:57:48;;;;;;;8.38;6.10;;;21.90;98.70;;;;;;5035511;28;20024;-77
2022/07/25 02:00:14;;;;;;;7.95;5.75;;;21.90;98.80;;;;;;5031409;28;20051;-78
2022/07/25 02:02:41;;;;;;;6.07;5.47;;;21.90;98.80;;;;;;5050160;28;20029;-77
2022/07/25 02:05:09;;;;;;;9.63;5.85;;;21.90;98.90;;;;;;5031409;28;20124;-77
2022/07/25 02:07:35;;;;;;;7.28;5.60;;;21.90;98.80;;;;;;5029598;28;20067;-77
2022/07/25 02:10:01;;;;;;;7.22;6.03;;;21.90;98.80;;;;;;5048316;28;20112;-77
2022/07/25 02:12:27;;;;;;;7.03;6.03;;;21.90;98.70;;;;;;5049661;28;20111;-76
2022/07/25 02:14:53;;;;;;;7.43;5.57;;;21.80;98.60;;;;;;5049403;28;20135;-78
2022/07/25 02:17:18;;;;;;;5.97;5.28;;;21.80;98.60;;;;;;5052788;28;20667;-77
2022/07/25 02:19:44;;;;;;;6.45;5.50;;;21.80;98.50;;;;;;5032398;28;20712;-78
2022/07/25 02:22:12;;;;;;;6.45;5.38;;;21.80;98.40;;;;;;5029930;28;20108;-78
2022/07/25 02:24:38;;;;;;;8.10;6.07;;;21.80;98.40;;;;;;5030359;28;20033;-78
2022/07/25 02:27:04;;;;;;;6.13;5.53;;;21.70;98.30;;;;;;5015721;28;20037;-77
2022/07/25 02:29:31;;;;;;;7.88;5.43;;;21.70;98.40;;;;;;5030144;28;20025;-77
2022/07/25 02:31:56;;;;;;;7.43;5.32;;;21.70;98.50;;;;;;5013434;28;20067;-77
2022/07/25 02:34:22;;;;;;;6.65;5.95;;;21.70;98.40;;;;;;5030027;28;20041;-79
2022/07/25 02:36:48;;;;;;;6.40;5.63;;;21.70;98.30;;;;;;5049520;28;20092;-78
2022/07/25 02:39:17;;;;;;;8.70;6.13;;;21.70;98.40;;;;;;5046708;28;20045;-78
2022/07/25 02:41:43;;;;;;;6.93;5.70;;;21.70;98.40;;;;;;5032213;28;20084;-77
2022/07/25 02:44:12;;;;;;;7.38;5.25;;;21.60;98.40;;;;;;5049338;28;20087;-77
2022/07/25 02:46:37;;;;;;;6.13;5.38;;;21.60;98.50;;;;;;5048537;28;20409;-77
2022/07/25 02:49:03;;;;;;;7.38;5.40;;;21.60;98.30;;;;;;5049360;28;20031;-77
2022/07/25 02:51:29;;;;;;;5.72;5.00;;;21.60;98.10;;;;;;5029943;28;20123;-77
2022/07/25 02:53:55;;;;;;;8.90;5.13;;;21.60;98.00;;;;;;5029631;28;20029;-77
2022/07/25 02:56:20;;;;;;;7.63;5.22;;;21.60;97.80;;;;;;5048257;28;20029;-77
2022/07/25 02:58:46;;;;;;;7.72;5.18;;;21.60;97.90;;;;;;5030363;28;20586;-77
2022/07/25 03:01:12;;;;;;;8.43;5.53;;;21.60;97.50;;;;;;5047959;28;20033;-78
2022/07/25 03:03:38;;;;;;;7.25;5.55;;;21.60;97.60;;;;;;5030188;28;20488;-77
2022/07/25 03:06:04;;;;;;;10.00;5.78;;;21.50;97.60;;;;;;5029298;28;20031;-77
2022/07/25 03:08:29;;;;;;;9.27;5.28;;;21.50;97.70;;;;;;5048758;28;20094;-76
2022/07/25 03:10:55;;;;;;;9.45;5.43;;;21.50;97.60;;;;;;5031213;28;20106;-78
2022/07/25 03:13:21;;;;;;;7.30;5.30;;;21.50;97.60;;;;;;5047087;28;20059;-78
2022/07/25 03:15:46;;;;;;;6.63;5.60;;;21.50;97.60;;;;;;5047616;28;20041;-78
2022/07/25 03:18:12;;;;;;;8.65;6.15;;;21.40;97.60;;;;;;5049036;28;20100;-76
2022/07/25 03:20:38;;;;;;;8.13;5.78;;;21.40;97.60;;;;;;5029689;28;20401;-77
2022/07/25 03:23:03;;;;;;;6.15;5.45;;;21.40;97.70;;;;;;5032430;28;20129;-78
2022/07/25 03:25:29;;;;;;;7.45;5.47;;;21.40;97.70;;;;;;5049252;28;20114;-78
2022/07/25 03:27:55;;;;;;;15.25;5.90;;;21.40;97.70;;;;;;5046399;28;20033;-77
2022/07/25 03:30:21;;;;;;;6.65;5.03;;;21.40;97.80;;;;;;5031181;28;20060;-78
2022/07/25 03:32:47;;;;;;;9.50;5.30;;;21.40;97.80;;;;;;5046197;28;20075;-77
2022/07/25 03:35:12;;;;;;;7.28;5.15;;;21.30;97.70;;;;;;5030079;28;20037;-78
2022/07/25 03:37:38;;;;;;;7.43;5.60;;;21.30;97.60;;;;;;5031495;28;20103;-78
2022/07/25 03:40:04;;;;;;;8.25;5.30;;;21.40;97.60;;;;;;5044663;28;20606;-76
2022/07/25 03:42:30;;;;;;;6.80;4.88;;;21.30;97.40;;;;;;5030616;28;20136;-77
2022/07/25 03:44:56;;;;;;;7.57;5.45;;;21.40;97.40;;;;;;5030290;28;20099;-77
2022/07/25 03:47:21;;;;;;;7.03;4.88;;;21.30;97.40;;;;;;5047890;28;20033;-77
2022/07/25 03:49:47;;;;;;;5.50;4.40;;;21.30;97.40;;;;;;5048400;28;20020;-77
2022/07/25 03:52:13;;;;;;;6.78;5.13;;;21.30;97.60;;;;;;5045727;28;20021;-77
2022/07/25 03:54:38;;;;;;;7.20;5.20;;;21.30;97.30;;;;;;5029869;28;20067;-77
2022/07/25 03:57:04;;;;;;;8.73;4.82;;;21.30;97.20;;;;;;5048110;28;20045;-78
2022/07/25 03:59:30;;;;;;;6.40;4.85;;;21.30;97.30;;;;;;5047973;28;20044;-77
2022/07/25 04:01:56;;;;;;;5.80;5.20;;;21.30;97.20;;;;;;5031476;28;20017;-77
2022/07/25 04:04:21;;;;;;;6.65;4.88;;;21.30;97.20;;;;;;5047920;28;20032;-77
2022/07/25 04:06:47;;;;;;;6.50;4.57;;;21.30;97.30;;;;;;5049155;28;20489;-77
2022/07/25 04:09:14;;;;;;;6.05;4.10;;;21.30;97.30;;;;;;5033962;28;20029;-78
2022/07/25 04:11:40;;;;;;;6.60;4.15;;;21.30;97.60;;;;;;5048587;28;20132;-77
2022/07/25 04:14:06;;;;;;;8.02;4.75;;;21.40;97.20;;;;;;5014027;28;20529;-77
2022/07/25 04:16:32;;;;;;;8.18;4.75;;;21.30;96.90;;;;;;5029989;28;20562;-78
2022/07/25 04:18:58;;;;;;;7.10;5.05;;;21.30;96.70;;;;;;5014332;28;20075;-79
2022/07/25 04:21:24;;;;;;;6.30;4.57;;;21.30;96.60;;;;;;5046627;28;20025;-78
2022/07/25 04:23:50;;;;;;;4.55;3.72;;;21.30;96.40;;;;;;5031343;28;20028;-78
2022/07/25 04:26:16;;;;;;;5.65;4.05;;;21.30;96.40;;;;;;5048481;28;20041;-78
2022/07/25 04:28:41;;;;;;;7.30;4.30;;;21.40;96.20;;;;;;5030128;28;20025;-77
2022/07/25 04:31:07;;;;;;;8.13;3.92;;;21.40;96.20;;;;;;5013779;28;20036;-78
2022/07/25 04:33:36;;;;;;;6.32;4.28;;;21.40;96.20;;;;;;5044030;28;20068;-77
2022/07/25 04:36:02;;;;;;;7.80;4.60;;;21.40;95.90;;;;;;5028464;28;20041;-78
2022/07/25 04:38:28;;;;;;;5.75;4.10;;;21.40;95.70;;;;;;5045726;28;20535;-77
2022/07/25 04:40:54;;;;;;;5.40;4.57;;;21.40;95.60;;;;;;5015138;28;20028;-78
2022/07/25 04:43:19;;;;;;;5.50;3.72;;;21.40;95.70;;;;;;5049640;28;20136;-78
2022/07/25 04:45:45;;;;;;;8.30;4.05;;;21.50;95.40;;;;;;5053287;28;20017;-78
2022/07/25 04:48:11;;;;;;;4.97;4.00;;;21.50;95.20;;;;;;5033149;28;20036;-76
2022/07/25 04:50:37;;;;;;;7.18;4.18;;;21.50;95.00;;;;;;5034970;28;20531;-76
2022/07/25 04:53:04;;;;;;;5.28;3.63;;;21.50;94.80;;;;;;5051081;28;20033;-77
2022/07/25 04:55:31;;;;;;;9.45;4.40;;;21.60;95.00;;;;;;5051411;28;20033;-77
2022/07/25 04:57:57;;;;;;;4.43;3.55;;;21.60;94.90;;;;;;5032306;28;20552;-78
2022/07/25 05:00:24;;;;;;;6.97;4.38;;;21.60;94.90;;;;;;5018655;28;20032;-78
2022/07/25 05:02:50;;;;;;;5.57;4.00;;;21.70;94.60;;;;;;5048779;28;20029;-78
2022/07/25 05:05:16;;;;;;;5.15;3.83;;;21.70;94.60;;;;;;5047975;28;20111;-77
2022/07/25 05:07:42;;;;;;;4.95;3.67;;;21.70;94.50;;;;;;5051637;28;20112;-78
2022/07/25 05:10:08;;;;;;;5.10;3.30;;;21.60;94.60;;;;;;5049494;28;20056;-77
2022/07/25 05:12:34;;;;;;;7.95;3.83;;;21.70;94.60;;;;;;5049421;28;20106;-77
2022/07/25 05:15:01;;;;;;;7.07;4.25;;;21.80;94.60;;;;;;5048619;28;20041;-77
2022/07/25 05:17:27;;;;;;;5.95;3.72;;;21.70;94.60;;;;;;5032893;28;20548;-78
2022/07/25 05:19:52;;;;;;;6.53;4.03;;;21.70;94.40;;;;;;5032978;28;20092;-78
2022/07/25 05:22:18;;;;;;;7.95;3.92;;;21.70;94.40;;;;;;5050702;28;20029;-77
2022/07/25 05:24:44;;;;;;;6.45;3.80;;;21.70;94.50;;;;;;5034230;28;20091;-77
2022/07/25 05:27:10;;;;;;;4.68;3.53;;;21.80;94.30;;;;;;5052145;28;20039;-76
2022/07/25 05:29:35;;;;;;;5.00;4.05;;;21.80;94.30;;;;;;5031953;28;20047;-76
2022/07/25 05:32:01;;;;;;;5.70;3.75;;;21.90;94.10;;;;;;5031484;28;20107;-77
2022/07/25 05:34:27;;;;;;;3.83;3.40;;;21.90;94.10;;;;;;5050189;28;20078;-79
2022/07/25 05:36:52;;;;;;;6.28;3.88;;;21.90;94.10;;;;;;5035887;28;20100;-78
2022/07/25 05:39:18;;;;;;;5.45;3.70;;;22.00;94.20;;;;;;5037719;28;20535;-79
2022/07/25 05:41:44;;;;;;;7.20;3.92;;;22.00;94.20;;;;;;5052296;28;20032;-77
2022/07/25 05:44:09;;;;;;;7.00;3.80;;;22.00;94.10;;;;;;5050567;28;20100;-77
2022/07/25 05:46:35;;;;;;;4.82;3.53;;;22.00;94.10;;;;;;5047936;28;20033;-78
2022/07/25 05:49:01;;;;;;;4.97;3.42;;;22.10;94.20;;;;;;5030301;28;20032;-78
2022/07/25 05:51:27;;;;;;;6.25;3.80;;;22.10;94.20;;;;;;5047528;28;20104;-77
2022/07/25 05:53:53;;;;;;;4.53;3.20;;;22.10;94.20;;;;;;5025302;28;21329;-76
2022/07/25 05:56:19;;;;;;;8.85;4.03;;;22.20;94.20;;;;;;5024607;28;20041;-76
2022/07/25 05:58:45;;;;;;;4.97;3.70;;;22.20;94.10;;;;;;5028432;28;20040;-77
2022/07/25 06:01:11;;;;;;;5.95;3.72;;;22.20;94.20;;;;;;5047474;28;20493;-77
2022/07/25 06:03:37;;;;;;;5.07;3.72;;;22.20;94.00;;;;;;5048412;28;20086;-77
2022/07/25 06:06:03;;;;;;;5.28;3.50;;;22.20;94.10;;;;;;5047394;28;20037;-76
2022/07/25 06:08:29;;;;;;;14.65;3.85;;;22.30;94.10;;;;;;5025184;28;20412;-77
2022/07/25 06:10:57;;;;;;;5.75;3.60;;;22.40;94.10;;;;;;5047852;28;20392;-77
2022/07/25 06:13:24;;;;;;;4.85;3.60;;;22.50;93.80;;;;;;5032476;28;20037;-79
2022/07/25 06:15:49;;;;;;;6.18;3.70;;;22.50;93.90;;;;;;5023964;28;20512;-73
2022/07/25 06:18:15;;;;;;;5.32;3.63;;;22.60;93.90;;;;;;5045496;28;20021;-72
2022/07/25 06:20:41;;;;;;;8.85;4.13;;;22.70;93.80;;;;;;5049405;28;20033;-74
2022/07/25 06:23:07;;;;;;;6.30;3.88;;;22.80;93.50;;;;;;5043981;28;20028;-73
2022/07/25 06:25:33;;;;;;;5.97;3.67;;;22.70;93.70;;;;;;5045478;28;20110;-71
2022/07/25 06:27:59;;;;;;;3.90;3.50;;;22.70;93.80;;;;;;5010195;28;20052;-72
2022/07/25 06:30:25;;;;;;;6.55;3.60;;;22.70;93.60;;;;;;5025994;28;20032;-72
2022/07/25 06:32:51;;;;;;;4.72;3.65;;;22.70;93.70;;;;;;5041281;28;20033;-73
2022/07/25 06:35:17;;;;;;;7.88;3.95;;;22.80;93.80;;;;;;5044018;28;20029;-74
2022/07/25 06:37:42;;;;;;;4.72;3.80;;;22.90;93.80;;;;;;5044439;28;20032;-74
2022/07/25 06:40:09;;;;;;;5.03;3.83;;;22.90;93.70;;;;;;5045147;28;20032;-74
2022/07/25 06:42:53;;;;;;;6.68;3.60;;;23.00;93.60;;;;;;5043784;28;20029;-74
2022/07/25 06:45:20;;;;;;;4.55;3.65;;;23.10;93.70;;;;;;5025411;28;20024;-74
2022/07/25 06:47:45;;;;;;;4.43;3.65;;;23.20;93.60;;;;;;5043606;28;20523;-73
2022/07/25 06:50:14;;;;;;;4.97;3.88;;;23.30;93.50;;;;;;5046197;28;20029;-73
2022/07/25 06:52:40;;;;;;;6.93;3.80;;;23.40;93.30;;;;;;5048550;28;20501;-73
2022/07/25 06:55:08;;;;;;;5.85;3.85;;;23.50;93.30;;;;;;5045439;28;20402;-73
2022/07/25 06:57:36;;;;;;;7.28;3.80;;;23.60;92.90;;;;;;5045512;28;20017;-73
2022/07/25 07:00:08;;;;;;;7.82;3.88;;;23.60;92.70;;;;;;5043060;28;20037;-72
2022/07/25 07:02:45;;;;;;;4.30;3.53;;;23.60;92.90;;;;;;5025679;28;20063;-72
2022/07/25 07:05:11;;;;;;;4.28;3.70;;;23.60;93.20;;;;;;5026834;28;20142;-72
2022/07/25 07:07:37;;;;;;;5.63;4.30;;;23.60;93.30;;;;;;5044067;28;20497;-74
2022/07/25 07:10:03;;;;;;;6.75;4.18;;;23.60;93.30;;;;;;5046330;28;20089;-76
2022/07/25 07:12:30;;;;;;;5.68;4.35;;;23.60;93.40;;;;;;5027254;28;20037;-79
2022/07/25 07:14:55;;;;;;;5.57;3.53;;;23.70;93.60;;;;;;5023267;28;20021;-73
2022/07/25 07:17:21;;;;;;;8.63;4.00;;;23.80;93.10;;;;;;5026617;28;20032;-77
2022/07/25 07:19:47;;;;;;;5.28;4.00;;;23.90;92.80;;;;;;5024477;28;20040;-80
2022/07/25 07:22:12;;;;;;;4.93;3.50;;;24.00;92.70;;;;;;5026953;28;20021;-75
2022/07/25 07:24:40;;;;;;;5.72;3.50;;;24.10;92.40;;;;;;5045344;28;20116;-76
2022/07/25 07:27:06;;;;;;;4.82;4.20;;;24.20;92.40;;;;;;5048949;28;20033;-78
2022/07/25 07:29:31;;;;;;;6.68;3.55;;;24.20;92.20;;;;;;5024173;28;20083;-78
2022/07/25 07:31:57;;;;;;;5.75;4.00;;;24.40;92.10;;;;;;5030818;28;20072;-78
2022/07/25 07:34:23;;;;;;;6.78;4.80;;;24.40;92.20;;;;;;5032455;28;20033;-77
2022/07/25 07:36:48;;;;;;;9.25;4.45;;;24.50;91.60;;;;;;5013349;28;20025;-80
2022/07/25 07:39:15;;;;;;;6.28;4.60;;;24.60;91.40;;;;;;5034158;28;20492;-78
2022/07/25 07:41:41;;;;;;;6.78;4.20;;;24.70;91.40;;;;;;5044591;28;20036;-78
2022/07/25 07:44:06;;;;;;;5.03;3.80;;;24.70;90.70;;;;;;5036141;28;20029;-79
2022/07/25 07:46:38;;;;;;;7.70;4.28;;;24.80;90.70;;;;;;5054857;28;20029;-80
2022/07/25 07:49:04;;;;;;;7.82;4.18;;;24.90;91.10;;;;;;5052807;28;20078;-79
2022/07/25 07:51:32;;;;;;;9.45;5.07;;;25.00;90.60;;;;;;5052715;28;20108;-79
2022/07/25 07:56:42;;;;;;;6.32;4.35;;;25.10;90.50;;;;;;5039192;28;20101;-78
2022/07/25 07:59:08;;;;;;;8.60;4.50;;;25.20;90.40;;;;;;5017574;28;20409;-79
2022/07/25 08:01:34;;;;;;;8.00;4.40;;;25.20;89.70;;;;;;5034740;28;20710;-78
2022/07/25 08:04:00;;;;;;;7.90;4.28;;;25.30;89.10;;;;;;5049454;28;20029;-79
2022/07/25 08:06:29;;;;;;;5.68;4.35;;;25.40;88.60;;;;;;5055968;28;20021;-78
2022/07/25 08:08:55;;;;;;;7.63;5.10;;;25.50;89.10;;;;;;5034040;28;20625;-79
2022/07/25 08:11:20;;;;;;;8.75;4.97;;;25.60;87.70;;;;;;5037266;28;20059;-77
2022/07/25 08:13:46;;;;;;;7.65;4.70;;;25.80;87.40;;;;;;5024225;28;20056;-80
2022/07/25 08:16:12;;;;;;;7.88;4.70;;;25.90;87.00;;;;;;5042143;28;20090;-78
2022/07/25 08:18:38;;;;;;;10.25;5.10;;;25.90;87.40;;;;;;5047469;28;20078;-78
2022/07/25 08:21:05;;;;;;;9.25;4.38;;;26.00;87.30;;;;;;5065512;28;20029;-78
2022/07/25 08:23:37;;;;;;;7.03;4.47;;;26.00;87.40;;;;;;5045750;28;20037;-79
2022/07/25 08:26:03;;;;;;;8.82;5.30;;;26.00;87.10;;;;;;5061130;28;20029;-78
2022/07/25 08:28:29;;;;;;;5.13;4.43;;;26.10;87.50;;;;;;5062743;28;20036;-78
2022/07/25 08:30:55;;;;;;;7.90;5.43;;;26.10;87.10;;;;;;5047360;28;20033;-78
2022/07/25 08:33:21;;;;;;;7.45;5.18;;;26.30;86.20;;;;;;5063071;28;20503;-78
2022/07/25 08:35:50;;;;;;;6.32;4.82;;;26.40;85.10;;;;;;5061485;28;20051;-77
2022/07/25 08:38:17;;;;;;;9.30;5.43;;;26.60;85.20;;;;;;5045633;28;20507;-78
2022/07/25 08:40:42;;;;;;;10.30;5.30;;;26.70;85.40;;;;;;5039482;28;20032;-77
2022/07/25 08:43:13;;;;;;;10.82;5.53;;;26.90;82.80;;;;;;5053388;28;20054;-78
2022/07/25 08:45:45;;;;;;;6.32;5.30;;;27.10;80.00;;;;;;5060546;28;20050;-77
2022/07/25 08:48:11;;;;;;;7.40;4.90;;;27.30;79.70;;;;;;5042988;28;20021;-78
2022/07/25 08:50:38;;;;;;;8.55;5.57;;;27.50;79.40;;;;;;5020768;28;20032;-78
2022/07/25 08:53:05;;;;;;;7.60;5.68;;;27.60;77.90;;;;;;5066487;28;20033;-79
2022/07/25 08:55:31;;;;;;;11.65;5.60;;;27.80;76.10;;;;;;5064720;28;20056;-79
2022/07/25 08:57:56;;;;;;;7.00;5.20;;;28.00;74.20;;;;;;5020943;28;20021;-77
2022/07/25 09:00:25;;;;;;;7.25;4.93;;;28.20;72.90;;;;;;5040268;28;20028;-78
2022/07/25 09:02:56;;;;;;;7.50;5.85;;;28.30;71.40;;;;;;5056937;28;20032;-77
2022/07/25 09:05:23;;;;;;;6.22;5.00;;;28.50;71.80;;;;;;5052699;28;20542;-78
2022/07/25 09:07:50;;;;;;;8.68;5.72;;;28.60;71.80;;;;;;5056756;28;20029;-77
2022/07/25 09:10:27;;;;;;;7.07;5.47;;;28.70;71.40;;;;;;5056508;28;20093;-78
2022/07/25 09:12:55;;;;;;;6.40;5.22;;;28.80;71.20;;;;;;5071240;28;20051;-78
2022/07/25 09:15:29;;;;;;;6.90;5.43;;;28.90;70.10;;;;;;5052343;28;20033;-78
2022/07/25 09:17:57;;;;;;;6.15;5.30;;;28.80;70.10;;;;;;5061653;28;20021;-78
2022/07/25 09:20:34;;;;;;;5.40;4.90;;;28.80;70.20;;;;;;5047103;28;20029;-78
2022/07/25 09:23:00;;;;;;;9.35;5.63;;;28.80;70.10;;;;;;5060671;28;20040;-78
2022/07/25 09:25:30;;;;;;;5.70;5.10;;;28.80;70.10;;;;;;5055116;28;20029;-78
2022/07/25 09:28:16;;;;;;;7.28;5.32;;;28.90;71.30;;;;;;5035409;28;20036;-78
2022/07/25 09:30:56;;;;;;;16.15;5.25;;;28.90;71.70;;;;;;5038036;28;20032;-78
2022/07/25 09:33:23;;;;;;;6.50;5.60;;;29.00;71.80;;;;;;5045085;28;20101;-78
2022/07/25 09:35:50;;;;;;;7.53;5.28;;;29.00;71.40;;;;;;5057908;28;20029;-78
2022/07/25 09:38:16;;;;;;;9.50;5.40;;;28.90;71.60;;;;;;5067738;28;20055;-78
2022/07/25 09:41:01;;;;;;;6.22;5.18;;;29.00;69.30;;;;;;5042447;28;20072;-79
2022/07/25 09:43:41;;;;;;;9.20;6.03;;;29.00;70.20;;;;;;5058762;28;20032;-78
2022/07/25 09:46:08;;;;;;;7.43;5.57;;;29.10;69.70;;;;;;5057981;28;20504;-78
2022/07/25 09:48:35;;;;;;;7.47;5.57;;;29.10;69.90;;;;;;5057556;28;20381;-78
2022/07/25 09:51:02;;;;;;;6.30;5.22;;;29.10;70.80;;;;;;5059598;28;20028;-79
2022/07/25 09:53:28;;;;;;;7.45;5.40;;;29.10;69.80;;;;;;5041602;28;20040;-79
2022/07/25 09:55:56;;;;;;;8.43;5.72;;;29.10;69.50;;;;;;5039472;28;20033;-79
2022/07/25 09:58:26;;;;;;;7.88;5.80;;;29.20;68.80;;;;;;5059085;28;20108;-78
2022/07/25 10:00:59;;;;;;;;;;;29.30;67.50;;;;;;5057627;28;20056;-79
2022/07/25 10:03:48;;;;;;;6.35;5.10;;;29.30;68.20;;;;;;5058528;28;19955;-78
2022/07/25 10:06:23;;;;;;;8.35;5.60;;;29.40;66.90;;;;;;5049743;28;20236;-77
2022/07/25 10:08:50;;;;;;;8.13;5.25;;;29.40;67.00;;;;;;5062973;28;20037;-78
2022/07/25 10:11:21;;;;;;;6.45;5.68;;;29.60;67.50;;;;;;5056235;28;20074;-79
2022/07/25 10:13:47;;;;;;;6.55;5.38;;;29.70;67.80;;;;;;5030586;28;20578;-77
2022/07/25 10:16:21;;;;;;;6.57;5.63;;;29.70;67.50;;;;;;5034328;28;20060;-77
2022/07/25 10:18:49;;;;;;;7.07;5.00;;;29.80;67.50;;;;;;5046864;28;20130;-77
2022/07/25 10:21:15;;;;;;;6.72;5.10;;;29.90;66.90;;;;;;5053626;28;20560;-77
2022/07/25 10:23:41;;;;;;;5.45;4.88;;;29.90;67.50;;;;;;5050556;28;20021;-78
2022/07/25 10:26:09;;;;;;;6.72;5.18;;;30.00;67.50;;;;;;5047975;28;20063;-77
2022/07/25 10:28:39;;;;;;;5.78;5.05;;;29.90;67.20;;;;;;5032949;28;20033;-77
2022/07/25 10:31:25;;;;;;;5.30;4.78;;;30.00;67.60;;;;;;5036657;28;20442;-75
2022/07/25 10:33:57;;;;;;;6.30;4.97;;;30.00;66.90;;;;;;5019405;28;20044;-79
2022/07/25 10:36:27;;;;;;;7.45;5.50;;;29.90;66.80;;;;;;5055760;28;20515;-78
2022/07/25 10:38:56;;;;;;;6.85;5.38;;;29.90;67.50;;;;;;5011982;28;20025;-77
2022/07/25 10:41:27;;;;;;;7.43;5.53;;;29.90;67.50;;;;;;5026937;28;20132;-76
2022/07/25 10:43:58;;;;;;;11.18;6.13;;;29.80;66.70;;;;;;5030481;28;20424;-77
2022/07/25 10:46:26;;;;;;;6.47;5.47;;;29.80;67.80;;;;;;5030789;28;20677;-77
2022/07/25 10:49:04;;;;;;;5.88;5.28;;;29.90;67.60;;;;;;5025806;28;20029;-77
2022/07/25 10:51:35;;;;;;;6.82;5.60;;;30.00;66.50;;;;;;5029841;28;20021;-77
2022/07/25 10:54:17;;;;;;;6.32;5.20;;;30.10;67.70;;;;;;5033508;28;20028;-77
2022/07/25 10:56:57;;;;;;;6.63;5.93;;;30.20;66.70;;;;;;5019339;28;20037;-77
2022/07/25 10:59:37;;;;;;;6.30;5.68;;;30.30;67.90;;;;;;5028475;28;20021;-77
2022/07/25 11:02:05;;;;;;;7.15;5.90;;;30.20;66.00;;;;;;5026093;28;20028;-77
2022/07/25 11:04:32;;;;;;;5.65;4.90;;;30.20;67.10;;;;;;5025054;28;20431;-77
2022/07/25 11:07:08;;;;;;;7.20;5.93;;;30.20;67.10;;;;;;5043363;28;20446;-78
2022/07/25 11:09:35;;;;;;;6.10;5.50;;;30.00;65.60;;;;;;5034524;28;20106;-77
2022/07/25 11:12:00;;;;;;;7.47;5.35;;;30.00;66.50;;;;;;5035389;28;20032;-77
2022/07/25 11:14:34;;;;;;;5.80;5.30;;;29.80;66.60;;;;;;5040034;28;20028;-77
2022/07/25 11:17:11;;;;;;;7.55;5.45;;;29.80;67.50;;;;;;5021290;28;20504;-77
2022/07/25 11:19:37;;;;;;;7.00;6.30;;;29.80;67.20;;;;;;5021767;28;20071;-76
2022/07/25 11:22:03;;;;;;;6.05;5.40;;;29.80;67.60;;;;;;5037248;28;20152;-78
2022/07/25 11:24:39;;;;;;;5.93;5.30;;;29.90;68.00;;;;;;5023065;28;20144;-78
2022/07/25 11:27:05;;;;;;;7.15;5.72;;;30.00;67.70;;;;;;5025700;28;20025;-77
2022/07/25 11:29:31;;;;;;;7.18;5.32;;;30.20;68.60;;;;;;5006940;28;20485;-77
2022/07/25 11:31:58;;;;;;;5.70;5.10;;;30.40;67.60;;;;;;5040344;28;20033;-76
2022/07/25 11:34:30;;;;;;;7.50;5.40;;;30.50;67.80;;;;;;5039675;28;20025;-77
2022/07/25 11:36:58;;;;;;;7.22;5.47;;;30.60;67.90;;;;;;5005869;28;20074;-77
2022/07/25 11:39:29;;;;;;;7.38;5.68;;;30.70;66.30;;;;;;5037978;28;20024;-77
2022/07/25 11:42:01;;;;;;;6.70;5.45;;;30.80;66.70;;;;;;5041575;28;20354;-81
2022/07/25 11:44:50;;;;;;;7.60;5.30;;;31.20;69.20;;;;;;5038896;28;20021;-77
2022/07/25 11:47:31;;;;;;;5.93;5.30;;;31.90;66.80;;;;;;5045637;28;20021;-77
2022/07/25 11:49:59;;;;;;;7.95;5.75;;;32.70;65.40;;;;;;5044818;28;20017;-77
2022/07/25 11:52:29;;;;;;;8.57;5.57;;;33.00;64.60;;;;;;5046252;28;20024;-76
2022/07/25 11:54:56;;;;;;;6.65;5.80;;;33.20;63.30;;;;;;5044304;28;20029;-77
2022/07/25 11:57:23;;;;;;;6.25;5.63;;;33.60;63.80;;;;;;5027249;28;20033;-77
2022/07/25 11:59:49;;;;;;;5.63;5.07;;;34.30;61.60;;;;;;5043452;28;20067;-77
2022/07/25 12:02:26;;;;;;;5.63;5.10;;;35.00;61.40;;;;;;5049231;28;20052;-76
2022/07/25 12:05:04;;;;;;;6.22;5.10;;;35.40;59.60;;;;;;5043129;28;20125;-78
2022/07/25 12:07:50;;;;;;;6.55;5.63;;;35.60;59.50;;;;;;5045615;28;20121;-77
2022/07/25 12:10:20;;;;;;;5.75;5.15;;;35.90;54.90;;;;;;5010382;28;20472;-78
2022/07/25 12:12:49;;;;;;;6.32;5.55;;;35.90;51.30;;;;;;5049595;28;20025;-77
2022/07/25 12:15:26;;;;;;;6.13;5.30;;;35.60;51.80;;;;;;5030165;28;20033;-77
2022/07/25 12:17:53;;;;;;;6.32;5.13;;;35.60;52.00;;;;;;5044953;28;20029;-80
2022/07/25 12:20:27;;;;;;;5.50;4.90;;;35.10;51.60;;;;;;5032433;28;20044;-78
2022/07/25 12:22:55;;;;;;;5.40;4.90;;;35.40;53.20;;;;;;5030802;28;20055;-77
2022/07/25 12:25:21;;;;;;;5.82;5.22;;;35.90;52.70;;;;;;5046626;28;20025;-76
2022/07/25 12:27:48;;;;;;;8.60;5.20;;;35.80;52.00;;;;;;5047044;28;20021;-77
2022/07/25 12:30:14;;;;;;;5.63;4.82;;;35.20;51.90;;;;;;5034179;28;20024;-77
2022/07/25 12:32:40;;;;;;;5.03;4.50;;;34.70;52.70;;;;;;5050259;28;20029;-77
2022/07/25 12:35:09;;;;;;;9.95;6.20;;;34.30;53.60;;;;;;5048134;28;20115;-77
2022/07/25 12:37:35;;;;;;;6.15;5.60;;;34.00;51.30;;;;;;5013301;28;20492;-77
2022/07/25 12:40:01;;;;;;;8.35;5.43;;;33.90;53.20;;;;;;5029840;28;20119;-78
2022/07/25 12:42:30;;;;;;;8.35;5.10;;;34.30;53.70;;;;;;5047029;28;20552;-78
2022/07/25 12:44:56;;;;;;;8.98;5.72;;;34.20;53.00;;;;;;5014592;28;20480;-78
2022/07/25 12:47:22;;;;;;;7.20;5.47;;;33.90;53.90;;;;;;5039636;28;20489;-78
2022/07/25 12:49:48;;;;;;;9.75;5.68;;;33.50;54.50;;;;;;5017219;28;20022;-79